sensor_id;sensor_type;location;lat;lon;timestamp;pressure;altitude;pressure_sealevel;temperature;humidity
11621;BME280;5866;49.094;11.900;2024-03-29T00:00:39;94943.50;;;5.41;100.00
11621;BME280;5866;49.094;11.900;2024-03-29T00:03:07;94941.06;;;5.47;100.00
11621;BME280;5866;49.094;11.900;2024-03-29T00:05:33;94938.41;;;5.39;100.00
11621;BME280;5866;49.094;11.900;2024-03-29T00:07:58;94933.78;;;5.17;100.00
11621;BME280;5866;49.094;11.900;2024-03-29T00:10:24;94936.69;;;5.06;100.00
11621;BME280;5866;49.094;11.900;2024-03-29T00:12:50;94924.22;;;5.08;100.00
11621;BME280;5866;49.094;11.900;2024-03-29T00:15:16;94920.97;;;5.38;100.00
11621;BME280;5866;49.094;11.900;2024-03-29T00:17:43;94936.09;;;5.28;100.00
11621;BME280;5866;49.094;11.900;2024-03-29T00:20:11;94918.69;;;5.35;100.00
11621;BME280;5866;49.094;11.900;2024-03-29T00:22:37;94915.06;;;5.28;100.00
11621;BME280;5866;49.094;11.900;2024-03-29T00:25:03;94922.81;;;5.46;100.00
11621;BME280;5866;49.094;11.900;2024-03-29T00:27:29;94921.97;;;5.21;100.00
11621;BME280;5866;49.094;11.900;2024-03-29T00:29:55;94921.13;;;5.13;100.00
11621;BME280;5866;49.094;11.900;2024-03-29T00:32:21;94912.41;;;5.12;100.00
11621;BME280;5866;49.094;11.900;2024-03-29T00:34:49;94911.06;;;4.92;100.00
11621;BME280;5866;49.094;11.900;2024-03-29T00:37:16;94917.78;;;4.95;100.00
11621;BME280;5866;49.094;11.900;2024-03-29T00:39:42;94923.13;;;5.43;100.00
11621;BME280;5866;49.094;11.900;2024-03-29T00:42:08;94920.31;;;5.36;100.00
11621;BME280;5866;49.094;11.900;2024-03-29T00:44:34;94914.56;;;5.33;100.00
11621;BME280;5866;49.094;11.900;2024-03-29T00:47:00;94917.28;;;4.99;100.00
11621;BME280;5866;49.094;11.900;2024-03-29T00:49:26;94922.22;;;4.94;100.00
11621;BME280;5866;49.094;11.900;2024-03-29T00:51:52;94919.91;;;4.99;100.00
11621;BME280;5866;49.094;11.900;2024-03-29T00:54:19;94923.72;;;5.05;100.00
11621;BME280;5866;49.094;11.900;2024-03-29T00:56:45;94908.44;;;5.00;100.00
11621;BME280;5866;49.094;11.900;2024-03-29T00:59:11;94909.41;;;4.99;100.00
11621;BME280;5866;49.094;11.900;2024-03-29T01:01:37;94902.19;;;5.01;100.00
11621;BME280;5866;49.094;11.900;2024-03-29T01:04:03;94908.53;;;4.74;100.00
11621;BME280;5866;49.094;11.900;2024-03-29T01:06:29;94898.19;;;4.81;100.00
11621;BME280;5866;49.094;11.900;2024-03-29T01:08:54;94892.97;;;4.89;100.00
11621;BME280;5866;49.094;11.900;2024-03-29T01:11:22;94886.88;;;4.80;100.00
11621;BME280;5866;49.094;11.900;2024-03-29T01:13:47;94884.06;;;4.82;100.00
11621;BME280;5866;49.094;11.900;2024-03-29T01:16:13;94871.47;;;4.86;100.00
11621;BME280;5866;49.094;11.900;2024-03-29T01:18:39;94858.81;;;4.81;100.00
11621;BME280;5866;49.094;11.900;2024-03-29T01:21:04;94857.13;;;4.72;100.00
11621;BME280;5866;49.094;11.900;2024-03-29T01:23:30;94871.34;;;4.53;100.00
11621;BME280;5866;49.094;11.900;2024-03-29T01:25:56;94869.47;;;4.38;100.00
11621;BME280;5866;49.094;11.900;2024-03-29T01:28:23;94854.69;;;4.29;100.00
11621;BME280;5866;49.094;11.900;2024-03-29T01:30:52;94839.59;;;4.31;100.00
11621;BME280;5866;49.094;11.900;2024-03-29T01:33:18;94838.97;;;4.37;100.00
11621;BME280;5866;49.094;11.900;2024-03-29T01:35:44;94851.44;;;4.35;100.00
11621;BME280;5866;49.094;11.900;2024-03-29T01:38:10;94866.31;;;4.26;100.00
11621;BME280;5866;49.094;11.900;2024-03-29T01:40:35;94864.16;;;4.22;100.00
11621;BME280;5866;49.094;11.900;2024-03-29T01:43:01;94858.63;;;4.33;100.00
11621;BME280;5866;49.094;11.900;2024-03-29T01:45:29;94863.69;;;4.26;100.00
11621;BME280;5866;49.094;11.900;2024-03-29T01:47:56;94865.16;;;4.21;100.00
11621;BME280;5866;49.094;11.900;2024-03-29T01:50:23;94877.59;;;4.19;100.00
11621;BME280;5866;49.094;11.900;2024-03-29T01:52:50;94873.81;;;4.21;100.00
11621;BME280;5866;49.094;11.900;2024-03-29T01:55:17;94868.09;;;4.26;100.00
11621;BME280;5866;49.094;11.900;2024-03-29T01:57:44;94864.38;;;4.36;100.00
11621;BME280;5866;49.094;11.900;2024-03-29T02:00:12;94857.06;;;4.48;100.00
11621;BME280;5866;49.094;11.900;2024-03-29T02:02:40;94851.50;;;4.59;100.00
11621;BME280;5866;49.094;11.900;2024-03-29T02:05:07;94849.88;;;4.58;100.00
11621;BME280;5866;49.094;11.900;2024-03-29T02:07:34;94859.44;;;4.75;100.00
11621;BME280;5866;49.094;11.900;2024-03-29T02:10:02;94868.41;;;4.56;100.00
11621;BME280;5866;49.094;11.900;2024-03-29T02:12:28;94885.47;;;4.52;100.00
11621;BME280;5866;49.094;11.900;2024-03-29T02:14:55;94883.66;;;4.61;100.00
11621;BME280;5866;49.094;11.900;2024-03-29T02:17:23;94886.47;;;4.59;100.00
11621;BME280;5866;49.094;11.900;2024-03-29T02:19:51;94854.41;;;4.40;100.00
11621;BME280;5866;49.094;11.900;2024-03-29T02:22:20;94845.84;;;4.38;100.00
11621;BME280;5866;49.094;11.900;2024-03-29T02:24:50;94839.19;;;4.51;100.00
11621;BME280;5866;49.094;11.900;2024-03-29T02:27:17;94842.38;;;4.71;100.00
11621;BME280;5866;49.094;11.900;2024-03-29T02:29:44;94835.81;;;4.83;100.00
11621;BME280;5866;49.094;11.900;2024-03-29T02:32:10;94827.00;;;5.00;100.00
11621;BME280;5866;49.094;11.900;2024-03-29T02:34:37;94830.94;;;5.28;100.00
11621;BME280;5866;49.094;11.900;2024-03-29T02:37:04;94823.38;;;5.09;100.00
11621;BME280;5866;49.094;11.900;2024-03-29T02:39:31;94827.66;;;5.02;100.00
11621;BME280;5866;49.094;11.900;2024-03-29T02:41:59;94827.47;;;4.88;100.00
11621;BME280;5866;49.094;11.900;2024-03-29T02:44:26;94825.34;;;4.91;100.00
11621;BME280;5866;49.094;11.900;2024-03-29T02:46:52;94838.81;;;4.96;100.00
11621;BME280;5866;49.094;11.900;2024-03-29T02:49:18;94837.34;;;5.10;100.00
11621;BME280;5866;49.094;11.900;2024-03-29T02:51:45;94825.38;;;5.15;100.00
11621;BME280;5866;49.094;11.900;2024-03-29T02:54:10;94811.88;;;4.94;100.00
11621;BME280;5866;49.094;11.900;2024-03-29T02:56:37;94820.59;;;5.03;100.00
11621;BME280;5866;49.094;11.900;2024-03-29T02:59:04;94816.50;;;5.16;100.00
11621;BME280;5866;49.094;11.900;2024-03-29T03:01:31;94821.75;;;5.32;100.00
11621;BME280;5866;49.094;11.900;2024-03-29T03:03:57;94827.47;;;5.28;100.00
11621;BME280;5866;49.094;11.900;2024-03-29T03:06:23;94821.09;;;5.22;100.00
11621;BME280;5866;49.094;11.900;2024-03-29T03:08:49;94816.00;;;5.29;100.00
11621;BME280;5866;49.094;11.900;2024-03-29T03:11:45;94808.59;;;5.24;100.00
11621;BME280;5866;49.094;11.900;2024-03-29T03:14:13;94807.94;;;5.14;100.00
11621;BME280;5866;49.094;11.900;2024-03-29T03:16:39;94809.75;;;5.06;100.00
11621;BME280;5866;49.094;11.900;2024-03-29T03:19:05;94828.97;;;4.98;100.00
11621;BME280;5866;49.094;11.900;2024-03-29T03:21:32;94825.50;;;5.06;100.00
11621;BME280;5866;49.094;11.900;2024-03-29T03:23:57;94823.06;;;4.96;100.00
11621;BME280;5866;49.094;11.900;2024-03-29T03:26:24;94833.84;;;4.77;100.00
11621;BME280;5866;49.094;11.900;2024-03-29T03:28:50;94827.59;;;4.70;100.00
11621;BME280;5866;49.094;11.900;2024-03-29T03:31:18;94832.53;;;4.81;100.00
11621;BME280;5866;49.094;11.900;2024-03-29T03:33:44;94822.06;;;4.97;100.00
11621;BME280;5866;49.094;11.900;2024-03-29T03:36:11;94833.19;;;4.83;100.00
11621;BME280;5866;49.094;11.900;2024-03-29T03:38:37;94820.38;;;4.80;100.00
11621;BME280;5866;49.094;11.900;2024-03-29T03:41:05;94810.69;;;4.72;100.00
11621;BME280;5866;49.094;11.900;2024-03-29T03:43:30;94804.91;;;4.61;100.00
11621;BME280;5866;49.094;11.900;2024-03-29T03:46:00;94812.00;;;4.68;100.00
11621;BME280;5866;49.094;11.900;2024-03-29T03:48:28;94820.19;;;4.73;100.00
11621;BME280;5866;49.094;11.900;2024-03-29T03:50:55;94823.00;;;4.80;100.00
11621;BME280;5866;49.094;11.900;2024-03-29T03:53:20;94833.84;;;4.85;100.00
11621;BME280;5866;49.094;11.900;2024-03-29T03:55:47;94840.25;;;4.82;100.00
11621;BME280;5866;49.094;11.900;2024-03-29T03:58:13;94838.13;;;4.86;100.00
11621;BME280;5866;49.094;11.900;2024-03-29T04:00:40;94844.56;;;5.24;100.00
11621;BME280;5866;49.094;11.900;2024-03-29T04:03:06;94836.19;;;5.04;100.00
11621;BME280;5866;49.094;11.900;2024-03-29T04:05:36;94837.81;;;4.89;100.00
11621;BME280;5866;49.094;11.900;2024-03-29T04:08:02;94829.63;;;4.92;100.00
11621;BME280;5866;49.094;11.900;2024-03-29T04:10:29;94829.75;;;4.99;100.00
11621;BME280;5866;49.094;11.900;2024-03-29T04:12:55;94819.25;;;4.91;100.00
11621;BME280;5866;49.094;11.900;2024-03-29T04:15:21;94810.53;;;4.74;100.00
11621;BME280;5866;49.094;11.900;2024-03-29T04:17:47;94809.06;;;4.79;100.00
11621;BME280;5866;49.094;11.900;2024-03-29T04:20:14;94804.28;;;4.67;100.00
11621;BME280;5866;49.094;11.900;2024-03-29T04:22:41;94796.34;;;4.43;100.00
11621;BME280;5866;49.094;11.900;2024-03-29T04:25:09;94792.91;;;4.50;100.00
11621;BME280;5866;49.094;11.900;2024-03-29T04:27:34;94796.59;;;4.24;100.00
11621;BME280;5866;49.094;11.900;2024-03-29T04:30:01;94806.13;;;4.25;100.00
11621;BME280;5866;49.094;11.900;2024-03-29T04:32:28;94798.94;;;4.35;100.00
11621;BME280;5866;49.094;11.900;2024-03-29T04:34:55;94804.81;;;4.29;100.00
11621;BME280;5866;49.094;11.900;2024-03-29T04:37:20;94815.19;;;4.38;100.00
11621;BME280;5866;49.094;11.900;2024-03-29T04:39:48;94805.22;;;4.42;100.00
11621;BME280;5866;49.094;11.900;2024-03-29T04:42:15;94803.53;;;4.41;100.00
11621;BME280;5866;49.094;11.900;2024-03-29T04:44:42;94805.94;;;4.76;100.00
11621;BME280;5866;49.094;11.900;2024-03-29T04:47:08;94793.72;;;4.51;100.00
11621;BME280;5866;49.094;11.900;2024-03-29T04:49:35;94803.81;;;4.30;100.00
11621;BME280;5866;49.094;11.900;2024-03-29T04:52:03;94807.72;;;4.18;100.00
11621;BME280;5866;49.094;11.900;2024-03-29T04:54:30;94802.81;;;4.15;100.00
11621;BME280;5866;49.094;11.900;2024-03-29T04:56:59;94797.22;;;4.18;100.00
11621;BME280;5866;49.094;11.900;2024-03-29T04:59:27;94794.97;;;4.23;100.00
11621;BME280;5866;49.094;11.900;2024-03-29T05:01:55;94801.19;;;4.30;100.00
11621;BME280;5866;49.094;11.900;2024-03-29T05:04:22;94819.97;;;4.43;100.00
11621;BME280;5866;49.094;11.900;2024-03-29T05:06:52;94818.66;;;4.55;100.00
11621;BME280;5866;49.094;11.900;2024-03-29T05:09:19;94824.41;;;4.50;100.00
11621;BME280;5866;49.094;11.900;2024-03-29T05:11:46;94811.84;;;4.78;100.00
11621;BME280;5866;49.094;11.900;2024-03-29T05:14:14;94803.97;;;4.86;100.00
11621;BME280;5866;49.094;11.900;2024-03-29T05:16:42;94803.66;;;5.05;100.00
11621;BME280;5866;49.094;11.900;2024-03-29T05:19:08;94803.34;;;5.08;100.00
11621;BME280;5866;49.094;11.900;2024-03-29T05:21:35;94801.38;;;5.10;100.00
11621;BME280;5866;49.094;11.900;2024-03-29T05:24:02;94802.69;;;5.06;100.00
11621;BME280;5866;49.094;11.900;2024-03-29T05:26:29;94809.91;;;5.20;100.00
11621;BME280;5866;49.094;11.900;2024-03-29T05:28:56;94805.63;;;5.11;100.00
11621;BME280;5866;49.094;11.900;2024-03-29T05:31:25;94811.22;;;5.24;100.00
11621;BME280;5866;49.094;11.900;2024-03-29T05:33:52;94805.13;;;5.88;100.00
11621;BME280;5866;49.094;11.900;2024-03-29T05:36:19;94800.69;;;6.66;100.00
11621;BME280;5866;49.094;11.900;2024-03-29T05:38:46;94810.00;;;7.07;100.00
11621;BME280;5866;49.094;11.900;2024-03-29T05:41:13;94813.41;;;7.76;100.00
11621;BME280;5866;49.094;11.900;2024-03-29T05:43:39;94815.88;;;8.29;100.00
11621;BME280;5866;49.094;11.900;2024-03-29T05:46:06;94813.50;;;7.82;100.00
11621;BME280;5866;49.094;11.900;2024-03-29T05:48:34;94823.47;;;7.58;100.00
11621;BME280;5866;49.094;11.900;2024-03-29T05:51:01;94834.75;;;6.98;100.00
11621;BME280;5866;49.094;11.900;2024-03-29T05:53:28;94826.47;;;6.48;100.00
11621;BME280;5866;49.094;11.900;2024-03-29T05:55:54;94828.16;;;6.33;100.00
11621;BME280;5866;49.094;11.900;2024-03-29T05:58:21;94825.28;;;6.12;100.00
11621;BME280;5866;49.094;11.900;2024-03-29T06:00:48;94822.50;;;6.05;100.00
11621;BME280;5866;49.094;11.900;2024-03-29T06:03:14;94809.50;;;6.04;100.00
11621;BME280;5866;49.094;11.900;2024-03-29T06:05:42;94823.59;;;6.27;100.00
11621;BME280;5866;49.094;11.900;2024-03-29T06:08:09;94826.31;;;6.03;100.00
11621;BME280;5866;49.094;11.900;2024-03-29T06:10:36;94824.94;;;6.15;100.00
11621;BME280;5866;49.094;11.900;2024-03-29T06:13:03;94831.75;;;5.93;100.00
11621;BME280;5866;49.094;11.900;2024-03-29T06:15:36;94823.53;;;7.27;100.00
11621;BME280;5866;49.094;11.900;2024-03-29T06:18:20;94825.31;;;8.38;100.00
11621;BME280;5866;49.094;11.900;2024-03-29T06:20:49;94830.13;;;9.35;98.27
11621;BME280;5866;49.094;11.900;2024-03-29T06:23:15;94835.19;;;10.00;88.23
11621;BME280;5866;49.094;11.900;2024-03-29T06:25:42;94828.59;;;9.90;83.05
11621;BME280;5866;49.094;11.900;2024-03-29T06:28:10;94832.09;;;9.27;86.43
11621;BME280;5866;49.094;11.900;2024-03-29T06:30:37;94843.66;;;9.68;85.51
11621;BME280;5866;49.094;11.900;2024-03-29T06:33:04;94838.94;;;8.86;88.40
11621;BME280;5866;49.094;11.900;2024-03-29T06:35:30;94845.31;;;9.48;88.32
11621;BME280;5866;49.094;11.900;2024-03-29T06:37:58;94827.66;;;10.59;80.34
11621;BME280;5866;49.094;11.900;2024-03-29T06:40:25;94813.47;;;11.40;73.69
11621;BME280;5866;49.094;11.900;2024-03-29T06:42:52;94810.47;;;10.96;71.47
11621;BME280;5866;49.094;11.900;2024-03-29T06:45:21;94814.69;;;9.60;77.20
11621;BME280;5866;49.094;11.900;2024-03-29T06:47:48;94810.84;;;8.85;83.89
11621;BME280;5866;49.094;11.900;2024-03-29T06:50:15;94832.47;;;8.15;95.26
11621;BME280;5866;49.094;11.900;2024-03-29T06:52:41;94840.03;;;8.18;99.59
11621;BME280;5866;49.094;11.900;2024-03-29T06:55:10;94824.03;;;8.34;97.82
11621;BME280;5866;49.094;11.900;2024-03-29T06:57:37;94814.22;;;8.28;98.46
11621;BME280;5866;49.094;11.900;2024-03-29T07:00:05;94818.06;;;8.03;99.75
11621;BME280;5866;49.094;11.900;2024-03-29T07:02:31;94823.78;;;7.92;100.00
11621;BME280;5866;49.094;11.900;2024-03-29T07:04:58;94828.28;;;7.69;100.00
11621;BME280;5866;49.094;11.900;2024-03-29T07:07:30;94838.97;;;7.75;100.00
11621;BME280;5866;49.094;11.900;2024-03-29T07:09:57;94848.78;;;7.44;100.00
11621;BME280;5866;49.094;11.900;2024-03-29T07:12:25;94844.03;;;7.40;100.00
11621;BME280;5866;49.094;11.900;2024-03-29T07:14:52;94841.22;;;7.18;100.00
11621;BME280;5866;49.094;11.900;2024-03-29T07:17:18;94840.19;;;7.28;100.00
11621;BME280;5866;49.094;11.900;2024-03-29T07:19:45;94841.94;;;7.35;100.00
11621;BME280;5866;49.094;11.900;2024-03-29T07:22:11;94842.16;;;7.26;100.00
11621;BME280;5866;49.094;11.900;2024-03-29T07:24:38;94830.84;;;7.40;100.00
11621;BME280;5866;49.094;11.900;2024-03-29T07:27:05;94825.09;;;7.59;100.00
11621;BME280;5866;49.094;11.900;2024-03-29T07:29:33;94820.88;;;7.87;100.00
11621;BME280;5866;49.094;11.900;2024-03-29T07:32:00;94818.63;;;8.13;100.00
11621;BME280;5866;49.094;11.900;2024-03-29T07:34:26;94818.88;;;7.89;100.00
11621;BME280;5866;49.094;11.900;2024-03-29T07:36:53;94812.09;;;8.53;100.00
11621;BME280;5866;49.094;11.900;2024-03-29T07:39:20;94802.34;;;9.04;100.00
11621;BME280;5866;49.094;11.900;2024-03-29T07:41:48;94797.53;;;8.93;95.54
11621;BME280;5866;49.094;11.900;2024-03-29T07:44:14;94794.13;;;8.77;95.32
11621;BME280;5866;49.094;11.900;2024-03-29T07:46:42;94801.72;;;9.44;93.98
11621;BME280;5866;49.094;11.900;2024-03-29T07:49:11;94784.19;;;10.54;84.90
11621;BME280;5866;49.094;11.900;2024-03-29T07:51:38;94781.09;;;11.04;78.04
11621;BME280;5866;49.094;11.900;2024-03-29T07:54:04;94784.69;;;10.70;76.19
11621;BME280;5866;49.094;11.900;2024-03-29T07:56:31;94793.53;;;10.50;78.52
11621;BME280;5866;49.094;11.900;2024-03-29T07:58:58;94787.25;;;10.16;82.06
11621;BME280;5866;49.094;11.900;2024-03-29T08:01:24;94781.59;;;9.98;82.87
11621;BME280;5866;49.094;11.900;2024-03-29T08:03:52;94795.88;;;9.76;83.60
11621;BME280;5866;49.094;11.900;2024-03-29T08:06:20;94798.88;;;9.94;84.61
11621;BME280;5866;49.094;11.900;2024-03-29T08:08:48;94792.13;;;10.13;82.23
11621;BME280;5866;49.094;11.900;2024-03-29T08:11:15;94798.09;;;10.00;82.37
11621;BME280;5866;49.094;11.900;2024-03-29T08:13:42;94792.88;;;10.34;80.95
11621;BME280;5866;49.094;11.900;2024-03-29T08:16:08;94801.56;;;11.23;78.13
11621;BME280;5866;49.094;11.900;2024-03-29T08:18:36;94800.84;;;11.81;72.68
11621;BME280;5866;49.094;11.900;2024-03-29T08:21:04;94803.31;;;11.70;72.78
11621;BME280;5866;49.094;11.900;2024-03-29T08:23:38;94809.41;;;12.36;72.95
11621;BME280;5866;49.094;11.900;2024-03-29T08:26:05;94800.81;;;13.17;66.35
11621;BME280;5866;49.094;11.900;2024-03-29T08:28:31;94788.75;;;13.77;61.63
11621;BME280;5866;49.094;11.900;2024-03-29T08:30:58;94783.81;;;15.02;59.75
11621;BME280;5866;49.094;11.900;2024-03-29T08:33:25;94781.63;;;14.45;56.53
11621;BME280;5866;49.094;11.900;2024-03-29T08:35:52;94795.72;;;13.03;60.40
11621;BME280;5866;49.094;11.900;2024-03-29T08:38:20;94793.00;;;12.58;62.52
11621;BME280;5866;49.094;11.900;2024-03-29T08:40:47;94779.16;;;12.24;64.82
11621;BME280;5866;49.094;11.900;2024-03-29T08:43:14;94782.38;;;12.52;64.87
11621;BME280;5866;49.094;11.900;2024-03-29T08:45:41;94794.13;;;12.89;62.37
11621;BME280;5866;49.094;11.900;2024-03-29T08:48:08;94790.38;;;13.09;62.51
11621;BME280;5866;49.094;11.900;2024-03-29T08:50:35;94790.53;;;12.63;62.99
11621;BME280;5866;49.094;11.900;2024-03-29T08:53:01;94792.59;;;12.48;64.77
11621;BME280;5866;49.094;11.900;2024-03-29T08:55:30;94799.22;;;12.13;65.04
11621;BME280;5866;49.094;11.900;2024-03-29T08:57:57;94813.97;;;11.89;65.15
11621;BME280;5866;49.094;11.900;2024-03-29T09:00:24;94831.50;;;12.30;67.23
11621;BME280;5866;49.094;11.900;2024-03-29T09:02:50;94830.28;;;12.45;65.02
11621;BME280;5866;49.094;11.900;2024-03-29T09:05:17;94825.41;;;12.23;63.51
11621;BME280;5866;49.094;11.900;2024-03-29T09:07:44;94813.31;;;12.27;64.74
11621;BME280;5866;49.094;11.900;2024-03-29T09:10:11;94822.75;;;12.23;64.29
11621;BME280;5866;49.094;11.900;2024-03-29T09:12:39;94838.06;;;12.21;65.08
11621;BME280;5866;49.094;11.900;2024-03-29T09:15:06;94847.44;;;12.36;64.65
11621;BME280;5866;49.094;11.900;2024-03-29T09:17:38;94852.34;;;12.52;65.38
11621;BME280;5866;49.094;11.900;2024-03-29T09:20:05;94853.88;;;12.86;64.76
11621;BME280;5866;49.094;11.900;2024-03-29T09:22:32;94846.53;;;13.45;63.19
11621;BME280;5866;49.094;11.900;2024-03-29T09:24:59;94854.34;;;13.40;63.00
11621;BME280;5866;49.094;11.900;2024-03-29T09:27:26;94847.41;;;12.75;63.28
11621;BME280;5866;49.094;11.900;2024-03-29T09:29:55;94848.72;;;12.27;65.39
11621;BME280;5866;49.094;11.900;2024-03-29T09:32:22;94839.25;;;12.51;65.93
11621;BME280;5866;49.094;11.900;2024-03-29T09:34:49;94838.13;;;12.91;63.71
11621;BME280;5866;49.094;11.900;2024-03-29T09:37:15;94847.56;;;13.44;62.92
11621;BME280;5866;49.094;11.900;2024-03-29T09:39:43;94859.19;;;13.88;60.74
11621;BME280;5866;49.094;11.900;2024-03-29T09:42:14;94846.88;;;13.55;60.23
11621;BME280;5866;49.094;11.900;2024-03-29T09:44:43;94829.72;;;13.45;61.71
11621;BME280;5866;49.094;11.900;2024-03-29T09:47:15;94818.63;;;13.04;62.32
11621;BME280;5866;49.094;11.900;2024-03-29T09:49:44;94812.06;;;13.19;62.79
11621;BME280;5866;49.094;11.900;2024-03-29T09:52:13;94821.28;;;13.54;62.91
11621;BME280;5866;49.094;11.900;2024-03-29T09:54:40;94824.53;;;13.57;62.19
11621;BME280;5866;49.094;11.900;2024-03-29T09:57:07;94822.63;;;13.64;61.82
11621;BME280;5866;49.094;11.900;2024-03-29T09:59:34;94816.53;;;13.88;61.44
11621;BME280;5866;49.094;11.900;2024-03-29T10:02:04;94817.03;;;14.27;60.38
11621;BME280;5866;49.094;11.900;2024-03-29T10:04:37;94814.25;;;14.65;59.55
11621;BME280;5866;49.094;11.900;2024-03-29T10:07:04;94807.53;;;14.56;58.49
11621;BME280;5866;49.094;11.900;2024-03-29T10:09:31;94824.31;;;14.81;58.10
11621;BME280;5866;49.094;11.900;2024-03-29T10:11:58;94816.72;;;14.42;59.21
11621;BME280;5866;49.094;11.900;2024-03-29T10:14:25;94813.72;;;14.93;58.98
11621;BME280;5866;49.094;11.900;2024-03-29T10:16:52;94807.47;;;15.17;57.63
11621;BME280;5866;49.094;11.900;2024-03-29T10:19:19;94806.63;;;15.53;57.34
11621;BME280;5866;49.094;11.900;2024-03-29T10:21:48;94805.34;;;15.55;56.51
11621;BME280;5866;49.094;11.900;2024-03-29T10:24:16;94798.28;;;15.13;57.61
11621;BME280;5866;49.094;11.900;2024-03-29T10:26:43;94807.91;;;15.32;57.22
11621;BME280;5866;49.094;11.900;2024-03-29T10:29:10;94804.69;;;15.42;57.56
11621;BME280;5866;49.094;11.900;2024-03-29T10:31:37;94805.53;;;16.25;55.94
11621;BME280;5866;49.094;11.900;2024-03-29T10:34:04;94800.88;;;16.78;53.61
11621;BME280;5866;49.094;11.900;2024-03-29T10:36:31;94816.47;;;17.44;52.85
11621;BME280;5866;49.094;11.900;2024-03-29T10:39:09;94824.53;;;18.45;50.60
11621;BME280;5866;49.094;11.900;2024-03-29T10:41:38;94815.31;;;18.96;47.84
11621;BME280;5866;49.094;11.900;2024-03-29T10:44:09;94811.41;;;19.25;47.86
11621;BME280;5866;49.094;11.900;2024-03-29T10:46:37;94795.50;;;19.89;46.51
11621;BME280;5866;49.094;11.900;2024-03-29T10:49:06;94795.44;;;20.10;46.21
11621;BME280;5866;49.094;11.900;2024-03-29T10:51:37;94793.97;;;19.98;46.13
11621;BME280;5866;49.094;11.900;2024-03-29T10:54:06;94792.28;;;19.65;46.35
11621;BME280;5866;49.094;11.900;2024-03-29T10:56:35;94791.69;;;20.43;45.12
11621;BME280;5866;49.094;11.900;2024-03-29T10:59:07;94792.47;;;20.75;42.87
11621;BME280;5866;49.094;11.900;2024-03-29T11:01:38;94795.25;;;21.37;42.09
11621;BME280;5866;49.094;11.900;2024-03-29T11:04:13;94790.78;;;20.64;41.72
11621;BME280;5866;49.094;11.900;2024-03-29T11:06:43;94791.38;;;20.71;43.88
11621;BME280;5866;49.094;11.900;2024-03-29T11:09:15;94810.28;;;20.13;43.35
11621;BME280;5866;49.094;11.900;2024-03-29T11:11:47;94828.16;;;20.24;43.42
11621;BME280;5866;49.094;11.900;2024-03-29T11:14:19;94839.84;;;20.34;44.67
11621;BME280;5866;49.094;11.900;2024-03-29T11:16:46;94832.25;;;21.00;42.94
11621;BME280;5866;49.094;11.900;2024-03-29T11:19:16;94837.09;;;21.40;41.35
11621;BME280;5866;49.094;11.900;2024-03-29T11:21:43;94839.56;;;22.33;40.36
11621;BME280;5866;49.094;11.900;2024-03-29T11:24:16;94828.75;;;23.09;38.36
11621;BME280;5866;49.094;11.900;2024-03-29T11:26:45;94831.19;;;23.94;37.20
11621;BME280;5866;49.094;11.900;2024-03-29T11:29:18;94824.66;;;24.10;36.09
11621;BME280;5866;49.094;11.900;2024-03-29T11:31:45;94814.81;;;25.73;34.11
11621;BME280;5866;49.094;11.900;2024-03-29T11:34:12;94810.06;;;26.26;33.64
11621;BME280;5866;49.094;11.900;2024-03-29T11:36:39;94802.56;;;25.28;34.17
11621;BME280;5866;49.094;11.900;2024-03-29T11:39:06;94804.53;;;24.89;35.06
11621;BME280;5866;49.094;11.900;2024-03-29T11:41:34;94781.00;;;24.84;34.82
11621;BME280;5866;49.094;11.900;2024-03-29T11:44:01;94777.19;;;24.52;35.57
11621;BME280;5866;49.094;11.900;2024-03-29T11:46:28;94771.66;;;24.67;35.12
11621;BME280;5866;49.094;11.900;2024-03-29T11:48:59;94756.44;;;24.99;34.36
11621;BME280;5866;49.094;11.900;2024-03-29T11:51:26;94750.75;;;25.01;34.21
11621;BME280;5866;49.094;11.900;2024-03-29T11:53:53;94739.66;;;24.35;34.75
11621;BME280;5866;49.094;11.900;2024-03-29T11:56:20;94737.72;;;23.53;35.87
11621;BME280;5866;49.094;11.900;2024-03-29T11:58:48;94743.25;;;23.33;37.03
11621;BME280;5866;49.094;11.900;2024-03-29T12:01:15;94737.56;;;23.19;36.78
11621;BME280;5866;49.094;11.900;2024-03-29T12:03:43;94723.72;;;23.36;37.51
11621;BME280;5866;49.094;11.900;2024-03-29T12:06:10;94718.44;;;23.01;38.44
11621;BME280;5866;49.094;11.900;2024-03-29T12:08:38;94710.34;;;22.85;37.47
11621;BME280;5866;49.094;11.900;2024-03-29T12:11:06;94705.41;;;23.72;36.34
11621;BME280;5866;49.094;11.900;2024-03-29T12:13:33;94698.25;;;24.87;34.84
11621;BME280;5866;49.094;11.900;2024-03-29T12:16:01;94699.28;;;25.14;32.90
11621;BME280;5866;49.094;11.900;2024-03-29T12:18:29;94713.94;;;25.61;32.43
11621;BME280;5866;49.094;11.900;2024-03-29T12:20:57;94710.50;;;26.11;31.92
11621;BME280;5866;49.094;11.900;2024-03-29T12:23:24;94701.41;;;26.66;31.99
11621;BME280;5866;49.094;11.900;2024-03-29T12:25:53;94701.97;;;25.99;32.02
11621;BME280;5866;49.094;11.900;2024-03-29T12:28:21;94695.59;;;25.71;33.63
11621;BME280;5866;49.094;11.900;2024-03-29T12:30:48;94694.56;;;25.67;34.21
11621;BME280;5866;49.094;11.900;2024-03-29T12:33:17;94692.22;;;25.61;35.31
11621;BME280;5866;49.094;11.900;2024-03-29T12:35:45;94678.63;;;25.18;35.98
11621;BME280;5866;49.094;11.900;2024-03-29T12:38:16;94676.75;;;25.38;34.92
11621;BME280;5866;49.094;11.900;2024-03-29T12:40:44;94671.44;;;24.57;35.46
11621;BME280;5866;49.094;11.900;2024-03-29T12:43:14;94688.03;;;23.29;37.80
11621;BME280;5866;49.094;11.900;2024-03-29T12:45:43;94679.06;;;22.74;37.39
11621;BME280;5866;49.094;11.900;2024-03-29T12:48:10;94690.41;;;22.46;39.10
11621;BME280;5866;49.094;11.900;2024-03-29T12:50:40;94678.41;;;23.03;39.62
11621;BME280;5866;49.094;11.900;2024-03-29T12:53:08;94668.63;;;23.12;38.91
11621;BME280;5866;49.094;11.900;2024-03-29T12:55:35;94660.41;;;22.48;39.33
11621;BME280;5866;49.094;11.900;2024-03-29T12:58:05;94655.34;;;21.96;40.58
11621;BME280;5866;49.094;11.900;2024-03-29T13:00:35;94645.47;;;22.90;40.16